sensor_id;sensor_type;location;lat;lon;timestamp;temperature;humidity
77727;SHT30;68312;53.502;10.030;2023-09-18T00:00:49;16.08;91.76
77727;SHT30;68312;53.502;10.030;2023-09-18T00:03:16;16.08;91.88
77727;SHT30;68312;53.502;10.030;2023-09-18T00:05:43;16.04;91.88
77727;SHT30;68312;53.502;10.030;2023-09-18T00:08:08;16.01;91.96
77727;SHT30;68312;53.502;10.030;2023-09-18T00:10:34;15.97;91.95
77727;SHT30;68312;53.502;10.030;2023-09-18T00:13:00;15.97;92.06
77727;SHT30;68312;53.502;10.030;2023-09-18T00:15:26;15.97;92.17
77727;SHT30;68312;53.502;10.030;2023-09-18T00:17:52;15.92;92.12
77727;SHT30;68312;53.502;10.030;2023-09-18T00:20:18;15.89;92.14
77727;SHT30;68312;53.502;10.030;2023-09-18T00:22:45;15.87;92.22
77727;SHT30;68312;53.502;10.030;2023-09-18T00:25:11;15.82;92.28
77727;SHT30;68312;53.502;10.030;2023-09-18T00:27:36;15.79;92.26
77727;SHT30;68312;53.502;10.030;2023-09-18T00:30:04;15.78;92.38
77727;SHT30;68312;53.502;10.030;2023-09-18T00:32:30;15.78;92.44
77727;SHT30;68312;53.502;10.030;2023-09-18T00:34:55;15.75;92.43
77727;SHT30;68312;53.502;10.030;2023-09-18T00:37:21;15.72;92.46
77727;SHT30;68312;53.502;10.030;2023-09-18T00:39:46;15.67;92.55
77727;SHT30;68312;53.502;10.030;2023-09-18T00:42:12;15.67;92.65
77727;SHT30;68312;53.502;10.030;2023-09-18T00:44:43;15.67;92.74
77727;SHT30;68312;53.502;10.030;2023-09-18T00:47:10;15.67;92.83
77727;SHT30;68312;53.502;10.030;2023-09-18T00:49:40;15.65;92.87
77727;SHT30;68312;53.502;10.030;2023-09-18T00:52:08;15.65;92.96
77727;SHT30;68312;53.502;10.030;2023-09-18T00:54:36;15.64;92.95
77727;SHT30;68312;53.502;10.030;2023-09-18T00:57:03;15.67;92.96
77727;SHT30;68312;53.502;10.030;2023-09-18T00:59:29;15.64;92.97
77727;SHT30;68312;53.502;10.030;2023-09-18T01:01:54;15.62;93.07
77727;SHT30;68312;53.502;10.030;2023-09-18T01:04:21;15.61;93.06
77727;SHT30;68312;53.502;10.030;2023-09-18T01:06:47;15.64;93.17
77727;SHT30;68312;53.502;10.030;2023-09-18T01:09:16;15.64;93.12
77727;SHT30;68312;53.502;10.030;2023-09-18T01:11:56;15.60;93.11
77727;SHT30;68312;53.502;10.030;2023-09-18T01:14:35;15.57;93.14
77727;SHT30;68312;53.502;10.030;2023-09-18T01:17:03;15.57;93.16
77727;SHT30;68312;53.502;10.030;2023-09-18T01:19:41;15.58;93.18
77727;SHT30;68312;53.502;10.030;2023-09-18T01:22:09;15.57;93.19
77727;SHT30;68312;53.502;10.030;2023-09-18T01:24:36;15.57;93.13
77727;SHT30;68312;53.502;10.030;2023-09-18T01:27:04;15.57;93.12
77727;SHT30;68312;53.502;10.030;2023-09-18T01:29:31;15.60;93.28
77727;SHT30;68312;53.502;10.030;2023-09-18T01:31:56;15.61;93.21
77727;SHT30;68312;53.502;10.030;2023-09-18T01:34:29;15.64;93.21
77727;SHT30;68312;53.502;10.030;2023-09-18T01:36:58;15.64;93.22
77727;SHT30;68312;53.502;10.030;2023-09-18T01:39:25;15.62;93.15
77727;SHT30;68312;53.502;10.030;2023-09-18T01:41:56;15.67;93.10
77727;SHT30;68312;53.502;10.030;2023-09-18T01:44:21;15.64;93.08
77727;SHT30;68312;53.502;10.030;2023-09-18T01:46:47;15.67;93.17
77727;SHT30;68312;53.502;10.030;2023-09-18T01:49:14;15.61;92.97
77727;SHT30;68312;53.502;10.030;2023-09-18T01:51:39;15.60;92.92
77727;SHT30;68312;53.502;10.030;2023-09-18T01:54:05;15.54;92.83
77727;SHT30;68312;53.502;10.030;2023-09-18T01:56:30;15.54;92.82
77727;SHT30;68312;53.502;10.030;2023-09-18T01:58:56;15.47;92.86
77727;SHT30;68312;53.502;10.030;2023-09-18T02:01:21;15.44;92.93
77727;SHT30;68312;53.502;10.030;2023-09-18T02:03:47;15.40;92.91
77727;SHT30;68312;53.502;10.030;2023-09-18T02:06:12;15.37;92.97
77727;SHT30;68312;53.502;10.030;2023-09-18T02:08:38;15.33;93.01
77727;SHT30;68312;53.502;10.030;2023-09-18T02:11:03;15.39;93.30
77727;SHT30;68312;53.502;10.030;2023-09-18T02:13:30;15.46;93.40
77727;SHT30;68312;53.502;10.030;2023-09-18T02:15:56;15.54;93.42
77727;SHT30;68312;53.502;10.030;2023-09-18T02:18:21;15.54;93.34
77727;SHT30;68312;53.502;10.030;2023-09-18T02:20:47;15.55;93.22
77727;SHT30;68312;53.502;10.030;2023-09-18T02:23:15;15.50;93.09
77727;SHT30;68312;53.502;10.030;2023-09-18T02:25:41;15.51;93.12
77727;SHT30;68312;53.502;10.030;2023-09-18T02:28:07;15.47;93.04
77727;SHT30;68312;53.502;10.030;2023-09-18T02:30:32;15.46;93.05
77727;SHT30;68312;53.502;10.030;2023-09-18T02:32:58;15.47;93.04
77727;SHT30;68312;53.502;10.030;2023-09-18T02:35:25;15.43;92.97
77727;SHT30;68312;53.502;10.030;2023-09-18T02:37:50;15.41;92.95
77727;SHT30;68312;53.502;10.030;2023-09-18T02:40:16;15.44;93.01
77727;SHT30;68312;53.502;10.030;2023-09-18T02:42:41;15.44;93.08
77727;SHT30;68312;53.502;10.030;2023-09-18T02:45:07;15.50;93.15
77727;SHT30;68312;53.502;10.030;2023-09-18T02:47:34;15.50;93.12
77727;SHT30;68312;53.502;10.030;2023-09-18T02:49:59;15.50;93.14
77727;SHT30;68312;53.502;10.030;2023-09-18T02:52:24;15.46;93.12
77727;SHT30;68312;53.502;10.030;2023-09-18T02:54:50;15.44;93.15
77727;SHT30;68312;53.502;10.030;2023-09-18T02:57:15;15.44;93.09
77727;SHT30;68312;53.502;10.030;2023-09-18T02:59:41;15.49;93.11
77727;SHT30;68312;53.502;10.030;2023-09-18T03:02:06;15.47;93.08
77727;SHT30;68312;53.502;10.030;2023-09-18T03:04:32;15.50;93.13
77727;SHT30;68312;53.502;10.030;2023-09-18T03:06:57;15.49;93.11
77727;SHT30;68312;53.502;10.030;2023-09-18T03:09:22;15.50;93.08
77727;SHT30;68312;53.502;10.030;2023-09-18T03:11:48;15.50;92.99
77727;SHT30;68312;53.502;10.030;2023-09-18T03:14:13;15.51;92.95
77727;SHT30;68312;53.502;10.030;2023-09-18T03:16:39;15.49;92.82
77727;SHT30;68312;53.502;10.030;2023-09-18T03:19:04;15.53;92.96
77727;SHT30;68312;53.502;10.030;2023-09-18T03:21:30;15.57;92.88
77727;SHT30;68312;53.502;10.030;2023-09-18T03:23:59;15.54;92.69
77727;SHT30;68312;53.502;10.030;2023-09-18T03:26:24;15.53;92.45
77727;SHT30;68312;53.502;10.030;2023-09-18T03:28:50;15.50;92.51
77727;SHT30;68312;53.502;10.030;2023-09-18T03:31:15;15.53;92.53
77727;SHT30;68312;53.502;10.030;2023-09-18T03:33:40;15.55;92.49
77727;SHT30;68312;53.502;10.030;2023-09-18T03:36:06;15.54;92.34
77727;SHT30;68312;53.502;10.030;2023-09-18T03:38:33;15.53;92.29
77727;SHT30;68312;53.502;10.030;2023-09-18T03:41:00;15.53;92.29
77727;SHT30;68312;53.502;10.030;2023-09-18T03:43:26;15.47;92.21
77727;SHT30;68312;53.502;10.030;2023-09-18T03:45:52;15.47;92.18
77727;SHT30;68312;53.502;10.030;2023-09-18T03:51:58;15.44;92.39
77727;SHT30;68312;53.502;10.030;2023-09-18T03:54:23;15.43;92.40
77727;SHT30;68312;53.502;10.030;2023-09-18T03:56:48;15.43;92.41
77727;SHT30;68312;53.502;10.030;2023-09-18T03:59:14;15.40;92.42
77727;SHT30;68312;53.502;10.030;2023-09-18T04:01:39;15.44;92.63
77727;SHT30;68312;53.502;10.030;2023-09-18T04:04:05;15.53;92.41
77727;SHT30;68312;53.502;10.030;2023-09-18T04:06:41;15.47;92.20
77727;SHT30;68312;53.502;10.030;2023-09-18T04:09:06;15.49;92.28
77727;SHT30;68312;53.502;10.030;2023-09-18T04:11:33;15.46;92.10
77727;SHT30;68312;53.502;10.030;2023-09-18T04:14:00;15.41;92.16
77727;SHT30;68312;53.502;10.030;2023-09-18T04:16:26;15.43;92.13
77727;SHT30;68312;53.502;10.030;2023-09-18T04:18:53;15.39;92.07
77727;SHT30;68312;53.502;10.030;2023-09-18T04:21:19;15.39;91.99
77727;SHT30;68312;53.502;10.030;2023-09-18T04:23:47;15.34;92.03
77727;SHT30;68312;53.502;10.030;2023-09-18T04:26:12;15.31;92.07
77727;SHT30;68312;53.502;10.030;2023-09-18T04:28:41;15.30;92.13
77727;SHT30;68312;53.502;10.030;2023-09-18T04:31:06;15.29;92.18
77727;SHT30;68312;53.502;10.030;2023-09-18T04:33:32;15.26;92.24
77727;SHT30;68312;53.502;10.030;2023-09-18T04:35:57;15.26;92.31
77727;SHT30;68312;53.502;10.030;2023-09-18T04:38:23;15.24;92.50
77727;SHT30;68312;53.502;10.030;2023-09-18T04:44:29;15.23;92.62
77727;SHT30;68312;53.502;10.030;2023-09-18T04:46:55;15.23;92.69
77727;SHT30;68312;53.502;10.030;2023-09-18T04:49:22;15.24;92.74
77727;SHT30;68312;53.502;10.030;2023-09-18T04:51:49;15.29;92.77
77727;SHT30;68312;53.502;10.030;2023-09-18T04:54:15;15.31;92.72
77727;SHT30;68312;53.502;10.030;2023-09-18T04:56:41;15.30;92.70
77727;SHT30;68312;53.502;10.030;2023-09-18T04:59:06;15.30;92.61
77727;SHT30;68312;53.502;10.030;2023-09-18T05:01:32;15.30;92.67
77727;SHT30;68312;53.502;10.030;2023-09-18T05:03:57;15.34;92.70
77727;SHT30;68312;53.502;10.030;2023-09-18T05:06:23;15.43;92.74
77727;SHT30;68312;53.502;10.030;2023-09-18T05:08:48;15.47;92.62
77727;SHT30;68312;53.502;10.030;2023-09-18T05:11:14;15.50;92.57
77727;SHT30;68312;53.502;10.030;2023-09-18T05:13:39;15.60;92.42
77727;SHT30;68312;53.502;10.030;2023-09-18T05:16:05;15.67;92.23
77727;SHT30;68312;53.502;10.030;2023-09-18T05:18:30;15.71;91.88
77727;SHT30;68312;53.502;10.030;2023-09-18T05:20:56;15.77;91.54
77727;SHT30;68312;53.502;10.030;2023-09-18T05:23:21;15.77;91.51
77727;SHT30;68312;53.502;10.030;2023-09-18T05:25:47;15.82;91.54
77727;SHT30;68312;53.502;10.030;2023-09-18T05:28:13;15.91;91.14
77727;SHT30;68312;53.502;10.030;2023-09-18T05:30:39;15.89;91.03
77727;SHT30;68312;53.502;10.030;2023-09-18T05:33:05;15.89;91.10
77727;SHT30;68312;53.502;10.030;2023-09-18T05:38:04;15.97;91.00
77727;SHT30;68312;53.502;10.030;2023-09-18T05:40:31;15.99;91.01
77727;SHT30;68312;53.502;10.030;2023-09-18T05:42:57;16.01;90.99
77727;SHT30;68312;53.502;10.030;2023-09-18T05:45:22;16.06;91.07
77727;SHT30;68312;53.502;10.030;2023-09-18T05:47:49;16.10;90.91
77727;SHT30;68312;53.502;10.030;2023-09-18T05:50:15;16.26;90.51
77727;SHT30;68312;53.502;10.030;2023-09-18T05:52:46;16.40;89.92
77727;SHT30;68312;53.502;10.030;2023-09-18T05:55:11;16.49;89.51
77727;SHT30;68312;53.502;10.030;2023-09-18T05:57:37;16.55;89.35
77727;SHT30;68312;53.502;10.030;2023-09-18T06:00:04;16.67;88.75
77727;SHT30;68312;53.502;10.030;2023-09-18T06:02:30;16.83;87.98
77727;SHT30;68312;53.502;10.030;2023-09-18T06:04:57;16.98;87.27
77727;SHT30;68312;53.502;10.030;2023-09-18T06:07:24;17.17;86.86
77727;SHT30;68312;53.502;10.030;2023-09-18T06:09:50;17.25;86.78
77727;SHT30;68312;53.502;10.030;2023-09-18T06:12:15;17.34;86.93
77727;SHT30;68312;53.502;10.030;2023-09-18T06:14:40;17.40;86.72
77727;SHT30;68312;53.502;10.030;2023-09-18T06:17:06;17.55;86.17
77727;SHT30;68312;53.502;10.030;2023-09-18T06:19:32;17.70;85.96
77727;SHT30;68312;53.502;10.030;2023-09-18T06:21:58;17.87;85.53
77727;SHT30;68312;53.502;10.030;2023-09-18T06:24:23;18.00;84.84
77727;SHT30;68312;53.502;10.030;2023-09-18T06:26:49;18.04;84.08
77727;SHT30;68312;53.502;10.030;2023-09-18T06:29:16;18.07;83.88
77727;SHT30;68312;53.502;10.030;2023-09-18T06:31:41;18.13;83.24
77727;SHT30;68312;53.502;10.030;2023-09-18T06:34:07;18.18;83.52
77727;SHT30;68312;53.502;10.030;2023-09-18T06:36:33;18.23;84.17
77727;SHT30;68312;53.502;10.030;2023-09-18T06:38:58;18.27;83.85
77727;SHT30;68312;53.502;10.030;2023-09-18T06:41:24;18.28;83.38
77727;SHT30;68312;53.502;10.030;2023-09-18T06:43:49;18.27;84.13
77727;SHT30;68312;53.502;10.030;2023-09-18T06:46:15;18.35;83.46
77727;SHT30;68312;53.502;10.030;2023-09-18T06:48:41;18.42;82.57
77727;SHT30;68312;53.502;10.030;2023-09-18T06:51:15;18.51;82.19
77727;SHT30;68312;53.502;10.030;2023-09-18T06:53:41;18.55;81.68
77727;SHT30;68312;53.502;10.030;2023-09-18T06:56:06;18.61;81.66
77727;SHT30;68312;53.502;10.030;2023-09-18T06:58:34;18.72;81.23
77727;SHT30;68312;53.502;10.030;2023-09-18T07:00:59;18.85;80.48
77727;SHT30;68312;53.502;10.030;2023-09-18T07:03:25;18.89;81.40
77727;SHT30;68312;53.502;10.030;2023-09-18T07:05:51;18.99;81.35
77727;SHT30;68312;53.502;10.030;2023-09-18T07:08:17;19.12;80.74
77727;SHT30;68312;53.502;10.030;2023-09-18T07:10:45;19.30;79.71
77727;SHT30;68312;53.502;10.030;2023-09-18T07:13:10;19.43;79.34
77727;SHT30;68312;53.502;10.030;2023-09-18T07:15:37;19.46;79.26
77727;SHT30;68312;53.502;10.030;2023-09-18T07:18:03;19.54;78.24
77727;SHT30;68312;53.502;10.030;2023-09-18T07:20:28;19.62;78.03
77727;SHT30;68312;53.502;10.030;2023-09-18T07:22:56;19.83;77.36
77727;SHT30;68312;53.502;10.030;2023-09-18T07:25:21;20.05;77.46
77727;SHT30;68312;53.502;10.030;2023-09-18T07:27:47;20.19;76.23
77727;SHT30;68312;53.502;10.030;2023-09-18T07:30:14;20.33;76.98
77727;SHT30;68312;53.502;10.030;2023-09-18T07:32:45;20.34;76.84
77727;SHT30;68312;53.502;10.030;2023-09-18T07:35:11;20.36;76.96
77727;SHT30;68312;53.502;10.030;2023-09-18T07:37:36;20.36;76.84
77727;SHT30;68312;53.502;10.030;2023-09-18T07:40:06;20.39;76.55
77727;SHT30;68312;53.502;10.030;2023-09-18T07:42:33;20.54;76.75
77727;SHT30;68312;53.502;10.030;2023-09-18T07:44:59;20.78;75.40
77727;SHT30;68312;53.502;10.030;2023-09-18T07:47:24;20.91;75.28
77727;SHT30;68312;53.502;10.030;2023-09-18T07:49:49;20.97;75.10
77727;SHT30;68312;53.502;10.030;2023-09-18T07:52:17;21.01;76.39
77727;SHT30;68312;53.502;10.030;2023-09-18T07:54:43;21.01;75.26
77727;SHT30;68312;53.502;10.030;2023-09-18T07:57:09;20.90;74.98
77727;SHT30;68312;53.502;10.030;2023-09-18T07:59:37;20.81;75.42
77727;SHT30;68312;53.502;10.030;2023-09-18T08:02:04;20.80;76.19
77727;SHT30;68312;53.502;10.030;2023-09-18T08:04:33;20.68;76.19
77727;SHT30;68312;53.502;10.030;2023-09-18T08:06:58;20.77;76.28
77727;SHT30;68312;53.502;10.030;2023-09-18T08:09:25;20.80;75.73
77727;SHT30;68312;53.502;10.030;2023-09-18T08:11:51;20.92;76.63
77727;SHT30;68312;53.502;10.030;2023-09-18T08:14:21;20.91;76.94
77727;SHT30;68312;53.502;10.030;2023-09-18T08:16:46;20.84;76.09
77727;SHT30;68312;53.502;10.030;2023-09-18T08:19:15;20.73;76.06
77727;SHT30;68312;53.502;10.030;2023-09-18T08:21:42;20.63;76.84
77727;SHT30;68312;53.502;10.030;2023-09-18T08:24:08;20.49;77.80
77727;SHT30;68312;53.502;10.030;2023-09-18T08:26:33;20.46;78.38
77727;SHT30;68312;53.502;10.030;2023-09-18T08:28:58;20.44;78.66
77727;SHT30;68312;53.502;10.030;2023-09-18T08:31:25;20.49;78.52
77727;SHT30;68312;53.502;10.030;2023-09-18T08:33:53;20.54;78.93
77727;SHT30;68312;53.502;10.030;2023-09-18T08:36:18;20.61;79.54
77727;SHT30;68312;53.502;10.030;2023-09-18T08:38:45;20.67;79.32
77727;SHT30;68312;53.502;10.030;2023-09-18T08:41:12;20.57;78.31
77727;SHT30;68312;53.502;10.030;2023-09-18T08:43:43;20.57;78.90
77727;SHT30;68312;53.502;10.030;2023-09-18T08:46:11;20.54;79.84
77727;SHT30;68312;53.502;10.030;2023-09-18T08:48:38;20.57;79.16
77727;SHT30;68312;53.502;10.030;2023-09-18T08:51:06;20.57;79.33
77727;SHT30;68312;53.502;10.030;2023-09-18T08:53:34;20.57;78.48
77727;SHT30;68312;53.502;10.030;2023-09-18T08:56:01;20.66;77.57
77727;SHT30;68312;53.502;10.030;2023-09-18T08:58:35;20.68;78.58
77727;SHT30;68312;53.502;10.030;2023-09-18T09:01:06;20.73;77.92
77727;SHT30;68312;53.502;10.030;2023-09-18T09:03:42;20.70;78.38
77727;SHT30;68312;53.502;10.030;2023-09-18T09:06:09;20.73;79.03
77727;SHT30;68312;53.502;10.030;2023-09-18T09:08:36;20.66;80.30
77727;SHT30;68312;53.502;10.030;2023-09-18T09:11:04;20.67;80.53
77727;SHT30;68312;53.502;10.030;2023-09-18T09:13:29;20.74;78.35
77727;SHT30;68312;53.502;10.030;2023-09-18T09:15:57;20.87;78.45
77727;SHT30;68312;53.502;10.030;2023-09-18T09:18:28;21.02;78.21
77727;SHT30;68312;53.502;10.030;2023-09-18T09:23:25;21.77;76.71
77727;SHT30;68312;53.502;10.030;2023-09-18T09:26:17;22.20;74.48
77727;SHT30;68312;53.502;10.030;2023-09-18T09:28:44;22.54;74.12
77727;SHT30;68312;53.502;10.030;2023-09-18T09:31:11;22.88;74.70
77727;SHT30;68312;53.502;10.030;2023-09-18T09:33:37;22.88;72.26
77727;SHT30;68312;53.502;10.030;2023-09-18T09:36:07;22.89;73.00
77727;SHT30;68312;53.502;10.030;2023-09-18T09:38:34;22.82;73.18
77727;SHT30;68312;53.502;10.030;2023-09-18T09:41:00;22.88;72.70
77727;SHT30;68312;53.502;10.030;2023-09-18T09:43:28;22.89;71.87
77727;SHT30;68312;53.502;10.030;2023-09-18T09:46:01;23.06;72.36
77727;SHT30;68312;53.502;10.030;2023-09-18T09:48:27;23.30;71.65
77727;SHT30;68312;53.502;10.030;2023-09-18T09:50:59;23.26;71.94
77727;SHT30;68312;53.502;10.030;2023-09-18T09:53:45;23.09;71.72
77727;SHT30;68312;53.502;10.030;2023-09-18T09:56:12;23.07;73.04
77727;SHT30;68312;53.502;10.030;2023-09-18T09:58:38;23.10;73.67
77727;SHT30;68312;53.502;10.030;2023-09-18T10:01:09;23.17;71.59
77727;SHT30;68312;53.502;10.030;2023-09-18T10:03:38;23.40;70.73
77727;SHT30;68312;53.502;10.030;2023-09-18T10:06:06;23.55;70.99
77727;SHT30;68312;53.502;10.030;2023-09-18T10:08:33;23.71;70.72
77727;SHT30;68312;53.502;10.030;2023-09-18T10:11:06;23.58;70.57
77727;SHT30;68312;53.502;10.030;2023-09-18T10:13:41;23.33;71.61
77727;SHT30;68312;53.502;10.030;2023-09-18T10:16:13;23.07;70.73
77727;SHT30;68312;53.502;10.030;2023-09-18T10:19:40;22.91;72.92
77727;SHT30;68312;53.502;10.030;2023-09-18T10:22:37;22.96;72.31
77727;SHT30;68312;53.502;10.030;2023-09-18T10:25:20;23.12;72.21
77727;SHT30;68312;53.502;10.030;2023-09-18T10:27:50;23.46;71.03
77727;SHT30;68312;53.502;10.030;2023-09-18T10:30:20;24.11;69.12
77727;SHT30;68312;53.502;10.030;2023-09-18T10:32:50;24.53;67.01
77727;SHT30;68312;53.502;10.030;2023-09-18T10:35:15;24.53;66.68
77727;SHT30;68312;53.502;10.030;2023-09-18T10:37:46;24.30;68.70
77727;SHT30;68312;53.502;10.030;2023-09-18T10:40:13;24.13;70.41
77727;SHT30;68312;53.502;10.030;2023-09-18T10:42:41;24.04;69.97
77727;SHT30;68312;53.502;10.030;2023-09-18T10:45:10;23.95;69.81
77727;SHT30;68312;53.502;10.030;2023-09-18T10:47:43;23.97;69.87
77727;SHT30;68312;53.502;10.030;2023-09-18T10:50:12;24.39;68.12
77727;SHT30;68312;53.502;10.030;2023-09-18T10:52:44;25.72;65.02
77727;SHT30;68312;53.502;10.030;2023-09-18T10:55:14;25.97;61.88
77727;SHT30;68312;53.502;10.030;2023-09-18T10:57:54;25.46;66.10
77727;SHT30;68312;53.502;10.030;2023-09-18T11:00:24;24.84;65.83
77727;SHT30;68312;53.502;10.030;2023-09-18T11:02:55;24.78;65.76
77727;SHT30;68312;53.502;10.030;2023-09-18T11:05:35;25.01;65.57
77727;SHT30;68312;53.502;10.030;2023-09-18T11:08:31;26.00;63.58
77727;SHT30;68312;53.502;10.030;2023-09-18T11:13:36;25.72;62.32
77727;SHT30;68312;53.502;10.030;2023-09-18T11:16:17;25.08;63.93
77727;SHT30;68312;53.502;10.030;2023-09-18T11:18:50;24.69;65.47
77727;SHT30;68312;53.502;10.030;2023-09-18T11:21:18;24.74;65.80
77727;SHT30;68312;53.502;10.030;2023-09-18T11:23:59;24.70;66.58
77727;SHT30;68312;53.502;10.030;2023-09-18T11:26:29;24.36;66.82
77727;SHT30;68312;53.502;10.030;2023-09-18T11:28:59;24.20;68.01
77727;SHT30;68312;53.502;10.030;2023-09-18T11:32:00;24.02;69.22
77727;SHT30;68312;53.502;10.030;2023-09-18T11:34:30;24.02;67.56
77727;SHT30;68312;53.502;10.030;2023-09-18T11:37:19;24.08;66.86
77727;SHT30;68312;53.502;10.030;2023-09-18T11:39:45;24.20;66.69
77727;SHT30;68312;53.502;10.030;2023-09-18T11:42:18;24.13;67.22
77727;SHT30;68312;53.502;10.030;2023-09-18T11:44:44;24.08;67.85
77727;SHT30;68312;53.502;10.030;2023-09-18T11:47:17;24.15;68.12
77727;SHT30;68312;53.502;10.030;2023-09-18T11:49:54;24.19;68.54
77727;SHT30;68312;53.502;10.030;2023-09-18T11:52:22;24.26;67.42
77727;SHT30;68312;53.502;10.030;2023-09-18T11:54:47;24.26;67.71
77727;SHT30;68312;53.502;10.030;2023-09-18T11:57:14;24.30;67.91
77727;SHT30;68312;53.502;10.030;2023-09-18T11:59:43;24.29;67.21
77727;SHT30;68312;53.502;10.030;2023-09-18T12:02:10;23.82;67.07
77727;SHT30;68312;53.502;10.030;2023-09-18T12:04:36;23.77;67.97
77727;SHT30;68312;53.502;10.030;2023-09-18T12:07:06;23.84;67.81
77727;SHT30;68312;53.502;10.030;2023-09-18T12:09:33;24.01;67.85
77727;SHT30;68312;53.502;10.030;2023-09-18T12:12:00;24.20;66.36
77727;SHT30;68312;53.502;10.030;2023-09-18T12:14:31;24.37;66.25
77727;SHT30;68312;53.502;10.030;2023-09-18T12:16:59;24.43;65.64
77727;SHT30;68312;53.502;10.030;2023-09-18T12:19:25;24.56;66.28
77727;SHT30;68312;53.502;10.030;2023-09-18T12:21:51;24.78;65.04
77727;SHT30;68312;53.502;10.030;2023-09-18T12:24:24;25.03;64.09
77727;SHT30;68312;53.502;10.030;2023-09-18T12:26:51;25.15;64.79
77727;SHT30;68312;53.502;10.030;2023-09-18T12:29:16;24.94;64.83
77727;SHT30;68312;53.502;10.030;2023-09-18T12:31:42;24.88;64.92
77727;SHT30;68312;53.502;10.030;2023-09-18T12:34:21;25.22;64.88
77727;SHT30;68312;53.502;10.030;2023-09-18T12:36:48;25.07;64.48
77727;SHT30;68312;53.502;10.030;2023-09-18T12:39:14;25.18;66.14
77727;SHT30;68312;53.502;10.030;2023-09-18T12:41:44;25.12;63.39
77727;SHT30;68312;53.502;10.030;2023-09-18T12:44:10;25.07;63.50
77727;SHT30;68312;53.502;10.030;2023-09-18T12:46:38;24.95;63.35
77727;SHT30;68312;53.502;10.030;2023-09-18T12:49:35;25.53;62.81
77727;SHT30;68312;53.502;10.030;2023-09-18T12:52:02;25.52;61.42
77727;SHT30;68312;53.502;10.030;2023-09-18T12:54:44;25.45;62.84
77727;SHT30;68312;53.502;10.030;2023-09-18T12:57:19;25.65;62.22
77727;SHT30;68312;53.502;10.030;2023-09-18T12:59:45;25.92;63.60
77727;SHT30;68312;53.502;10.030;2023-09-18T13:02:13;26.27;61.45
77727;SHT30;68312;53.502;10.030;2023-09-18T13:04:39;26.52;60.18
77727;SHT30;68312;53.502;10.030;2023-09-18T13:07:11;26.27;59.26
77727;SHT30;68312;53.502;10.030;2023-09-18T13:09:37;26.31;60.35
77727;SHT30;68312;53.502;10.030;2023-09-18T13:12:04;26.65;58.23
77727;SHT30;68312;53.502;10.030;2023-09-18T13:14:29;26.68;58.39
77727;SHT30;68312;53.502;10.030;2023-09-18T13:17:01;27.09;57.71
77727;SHT30;68312;53.502;10.030;2023-09-18T13:19:30;27.95;56.32
77727;SHT30;68312;53.502;10.030;2023-09-18T13:21:55;28.33;52.95
77727;SHT30;68312;53.502;10.030;2023-09-18T13:24:30;27.46;55.99
77727;SHT30;68312;53.502;10.030;2023-09-18T13:26:57;26.41;57.63
77727;SHT30;68312;53.502;10.030;2023-09-18T13:29:25;25.66;59.68
77727;SHT30;68312;53.502;10.030;2023-09-18T13:31:51;25.41;60.89
77727;SHT30;68312;53.502;10.030;2023-09-18T13:34:18;25.12;61.73
77727;SHT30;68312;53.502;10.030;2023-09-18T13:36:45;24.87;64.54
77727;SHT30;68312;53.502;10.030;2023-09-18T13:39:12;24.73;64.95
77727;SHT30;68312;53.502;10.030;2023-09-18T13:41:39;24.57;64.01
77727;SHT30;68312;53.502;10.030;2023-09-18T13:44:06;24.35;64.84
77727;SHT30;68312;53.502;10.030;2023-09-18T13:46:32;24.25;65.85
77727;SHT30;68312;53.502;10.030;2023-09-18T13:49:04;24.26;65.83
77727;SHT30;68312;53.502;10.030;2023-09-18T13:51:32;24.12;65.69
77727;SHT30;68312;53.502;10.030;2023-09-18T13:53:57;23.98;65.80
77727;SHT30;68312;53.502;10.030;2023-09-18T13:56:23;23.91;65.96
77727;SHT30;68312;53.502;10.030;2023-09-18T13:58:54;23.82;67.00
77727;SHT30;68312;53.502;10.030;2023-09-18T14:01:19;23.75;66.62
77727;SHT30;68312;53.502;10.030;2023-09-18T14:03:45;23.62;66.98
77727;SHT30;68312;53.502;10.030;2023-09-18T14:06:11;23.58;67.52
77727;SHT30;68312;53.502;10.030;2023-09-18T14:08:36;23.58;67.59
77727;SHT30;68312;53.502;10.030;2023-09-18T14:11:04;23.46;67.60
77727;SHT30;68312;53.502;10.030;2023-09-18T14:13:31;23.39;68.12
77727;SHT30;68312;53.502;10.030;2023-09-18T14:15:57;23.44;68.84
77727;SHT30;68312;53.502;10.030;2023-09-18T14:18:22;23.46;69.05
77727;SHT30;68312;53.502;10.030;2023-09-18T14:20:47;23.53;68.56
77727;SHT30;68312;53.502;10.030;2023-09-18T14:23:13;23.49;69.73
77727;SHT30;68312;53.502;10.030;2023-09-18T14:25:38;23.60;67.84
77727;SHT30;68312;53.502;10.030;2023-09-18T14:28:04;23.92;68.44
77727;SHT30;68312;53.502;10.030;2023-09-18T14:30:29;24.04;67.07
77727;SHT30;68312;53.502;10.030;2023-09-18T14:32:57;24.69;65.04
77727;SHT30;68312;53.502;10.030;2023-09-18T14:35:22;25.77;62.28
77727;SHT30;68312;53.502;10.030;2023-09-18T14:37:48;26.08;60.77
77727;SHT30;68312;53.502;10.030;2023-09-18T14:40:14;26.65;60.23
77727;SHT30;68312;53.502;10.030;2023-09-18T14:42:40;27.16;58.89
77727;SHT30;68312;53.502;10.030;2023-09-18T14:45:06;26.41;59.34
77727;SHT30;68312;53.502;10.030;2023-09-18T14:47:32;25.79;60.79
77727;SHT30;68312;53.502;10.030;2023-09-18T14:49:57;25.39;61.97
77727;SHT30;68312;53.502;10.030;2023-09-18T14:52:23;25.19;62.27
77727;SHT30;68312;53.502;10.030;2023-09-18T14:54:51;24.84;63.41
77727;SHT30;68312;53.502;10.030;2023-09-18T14:57:18;24.64;64.77
77727;SHT30;68312;53.502;10.030;2023-09-18T14:59:43;24.36;65.78
77727;SHT30;68312;53.502;10.030;2023-09-18T15:02:13;24.15;65.33
77727;SHT30;68312;53.502;10.030;2023-09-18T15:04:40;24.09;64.88
77727;SHT30;68312;53.502;10.030;2023-09-18T15:07:05;23.86;64.83
77727;SHT30;68312;53.502;10.030;2023-09-18T15:09:31;23.86;65.10
77727;SHT30;68312;53.502;10.030;2023-09-18T15:11:56;23.91;65.40
77727;SHT30;68312;53.502;10.030;2023-09-18T15:14:22;23.94;64.99
77727;SHT30;68312;53.502;10.030;2023-09-18T15:16:47;23.97;65.26
77727;SHT30;68312;53.502;10.030;2023-09-18T15:19:12;23.97;65.78
77727;SHT30;68312;53.502;10.030;2023-09-18T15:21:39;24.25;64.23
77727;SHT30;68312;53.502;10.030;2023-09-18T15:24:07;24.32;64.73
77727;SHT30;68312;53.502;10.030;2023-09-18T15:26:32;24.44;64.22
77727;SHT30;68312;53.502;10.030;2023-09-18T15:28:58;24.44;63.84
77727;SHT30;68312;53.502;10.030;2023-09-18T15:31:23;24.37;64.67
77727;SHT30;68312;53.502;10.030;2023-09-18T15:33:50;24.33;64.22